Muscat novinkou letošní zimy, Čedok spustí charterové lety do Ománu

28.06.22 Orientální i moderní architektura, hory, pláže a nádherné oázy, Muscat je další novou destinací, kterou Češi mohou prozkoumat během letošní zimní sezóny. Přímé charterové lety Čedoku zamíří poprvé z Letiště Václava Havla Praha do hlavního města Ománu od 24. října 2022. Klienti poletí na palubách letadel typu Boeing 737 MAX letecké společnosti Smartwings s odlety naplánovanými každé pondělí až do konce března příštího roku. Celý článek

Odstartovaly lety z Karlových Varů do Antalye, Čedok příští rok přidá chartery na Krétu

20.06.22 Karlovarské letiště ožilo a odletová hala se včera podvečer letos poprvé zaplnila cestujícími. Klienti cestovní kanceláře Čedok, která během letní sezóny nabídne jako první na českém trhu odlety přímo z Karlových Varů, zamířili ve středu 15. června 2022 před 22 hodinou vyprodaným letadlem Smartwings na dovolenou na Tureckou riviéru. Celý článek

Zprávy

aktualizováno

01.07.22 Celý článek

Všechny zprávy    

Všechny články

Zeptejte se odborníka

Zkušený personál jedné z největších leteckých škol Flying Academy je připraven Vám pomoci s jakýmikoli otázkami týkajícími se letectví.

Zeptejte se

Newsletter

Přihlaste se k odběru novinek.

Aktuální počasí

LKKB
LKKB 010800Z 30005KT 260V340 9999 SCT024 BKN200 25/20 Q1013 NOSIG

LKKV
LKKV 010800Z 26009KT 230V290 9999 FEW030 BKN048TCU 20/14 Q1016

LKMT
LKMT 010800Z 18007KT 140V210 CAVOK 30/19 Q1012 NOSIG

LKPR
LKPR 010800Z 31009KT 9999 SCT027 SCT045 24/19 Q1014 NOSIG

LKTB
LKTB 010800Z 20009KT CAVOK 27/20 Q1013 NOSIG

Briefing

Kurzy měn

AUD AUD 16.75 Kč
EUR EUR 24.45 Kč
GBP GBP 29.30 Kč
HUF HUF 6.47 Kč
CHF CHF 24.14 Kč
USD USD 22.52 Kč